Time;durP1;ratioP1;P1;durP2;ratioP2;P2;SDS_P1;SDS_P2;PMS_P1;PMS_P2;Temp;Humidity;BMP_temperature;BMP_pressure;BME280_temperature;BME280_humidity;BME280_pressure;Samples;Min_cycle;Max_cycle;Signal;HPM_P1;HPM_P2
2022/08/07 00:00:59;;;;;;;12.65;5.70;;;;;;;;;;5122833;27;20372;-61
2022/08/07 00:03:27;;;;;;;9.77;5.20;;;;;;;;;;5131788;27;20035;-61
2022/08/07 00:05:53;;;;;;;8.73;5.53;;;;;;;;;;5130786;27;20042;-61
2022/08/07 00:08:21;;;;;;;8.13;4.13;;;;;;;;;;5129509;27;20046;-61
2022/08/07 00:10:48;;;;;;;6.05;4.32;;;;;;;;;;5130201;27;20046;-61
2022/08/07 00:13:14;;;;;;;6.65;4.38;;;;;;;;;;5135631;27;20031;-61
2022/08/07 00:15:40;;;;;;;6.97;3.90;;;;;;;;;;5131026;27;20107;-61
2022/08/07 00:18:08;;;;;;;5.50;3.60;;;;;;;;;;5127825;27;20047;-61
2022/08/07 00:20:35;;;;;;;6.15;3.53;;;;;;;;;;5126688;27;20043;-61
2022/08/07 00:23:01;;;;;;;4.85;3.30;;;;;;;;;;5128603;27;20114;-61
2022/08/07 00:25:28;;;;;;;4.68;2.90;;;;;;;;;;5125331;27;20106;-61
2022/08/07 00:27:54;;;;;;;4.38;3.13;;;;;;;;;;5126694;27;20394;-61
2022/08/07 00:30:21;;;;;;;4.75;3.58;;;;;;;;;;5129652;27;20047;-61
2022/08/07 00:32:48;;;;;;;5.40;3.50;;;;;;;;;;5126951;27;20031;-61
2022/08/07 00:35:14;;;;;;;5.10;3.33;;;;;;;;;;5122267;27;20432;-60
2022/08/07 00:37:40;;;;;;;4.70;3.53;;;;;;;;;;5129419;27;20455;-61
2022/08/07 00:40:07;;;;;;;6.55;2.85;;;;;;;;;;5125497;27;20486;-61
2022/08/07 00:42:35;;;;;;;7.90;2.45;;;;;;;;;;5111232;27;20498;-61
2022/08/07 00:45:01;;;;;;;2.65;1.60;;;;;;;;;;5130132;27;20084;-61
2022/08/07 00:47:27;;;;;;;3.38;1.95;;;;;;;;;;5127817;27;20429;-61
2022/08/07 00:49:53;;;;;;;3.33;1.95;;;;;;;;;;5127620;27;20478;-61
2022/08/07 00:52:20;;;;;;;2.67;1.50;;;;;;;;;;5127634;27;20122;-61
2022/08/07 00:54:46;;;;;;;6.53;1.40;;;;;;;;;;5123744;27;20034;-61
2022/08/07 00:57:13;;;;;;;2.40;1.27;;;;;;;;;;5124331;27;20131;-61
2022/08/07 00:59:39;;;;;;;4.65;2.47;;;;;;;;;;5120603;27;20131;-61
2022/08/07 01:02:06;;;;;;;5.95;2.17;;;;;;;;;;5108774;27;20051;-61
2022/08/07 01:04:32;;;;;;;5.03;2.13;;;;;;;;;;5126221;27;20031;-61
2022/08/07 01:06:58;;;;;;;4.13;2.63;;;;;;;;;;5125872;27;20045;-61
2022/08/07 01:09:25;;;;;;;4.32;2.55;;;;;;;;;;5123772;27;20075;-61
2022/08/07 01:11:52;;;;;;;4.78;3.35;;;;;;;;;;5121491;27;20038;-61
2022/08/07 01:14:19;;;;;;;6.70;3.85;;;;;;;;;;5123056;27;20476;-61
2022/08/07 01:16:45;;;;;;;5.43;3.72;;;;;;;;;;5123497;27;20047;-61
2022/08/07 01:19:12;;;;;;;7.85;4.47;;;;;;;;;;5124662;27;20046;-60
2022/08/07 01:21:38;;;;;;;8.07;5.82;;;;;;;;;;5124692;27;20074;-61
2022/08/07 01:24:05;;;;;;;10.82;6.53;;;;;;;;;;5124710;27;20418;-61
2022/08/07 01:26:32;;;;;;;10.02;6.53;;;;;;;;;;5125267;27;20379;-61
2022/08/07 01:28:58;;;;;;;7.68;6.10;;;;;;;;;;5127773;27;20606;-60
2022/08/07 01:31:30;;;;;;;7.78;6.22;;;;;;;;;;5135064;27;20123;-61
2022/08/07 01:33:56;;;;;;;13.65;6.13;;;;;;;;;;5135576;27;20168;-61
2022/08/07 01:36:23;;;;;;;9.65;5.88;;;;;;;;;;5131964;27;20048;-60
2022/08/07 01:38:49;;;;;;;10.05;5.93;;;;;;;;;;5131529;27;20118;-61
2022/08/07 01:41:16;;;;;;;6.55;4.82;;;;;;;;;;5107112;27;20137;-61
2022/08/07 01:43:42;;;;;;;5.88;4.30;;;;;;;;;;5126724;27;20043;-61
2022/08/07 01:46:08;;;;;;;5.60;3.65;;;;;;;;;;5121639;27;20057;-61
2022/08/07 01:48:37;;;;;;;7.25;3.78;;;;;;;;;;5123727;27;20071;-61
2022/08/07 01:51:06;;;;;;;8.07;4.75;;;;;;;;;;5121270;27;20050;-61
2022/08/07 01:53:33;;;;;;;7.95;4.68;;;;;;;;;;5121823;27;20402;-61
2022/08/07 01:56:03;;;;;;;6.13;4.15;;;;;;;;;;5120145;27;20114;-61
2022/08/07 01:58:33;;;;;;;7.95;4.13;;;;;;;;;;5123783;27;20047;-61
2022/08/07 02:01:02;;;;;;;5.18;3.70;;;;;;;;;;5122839;27;20103;-61
2022/08/07 02:03:29;;;;;;;6.28;3.88;;;;;;;;;;5121230;27;20358;-61
2022/08/07 02:05:58;;;;;;;5.78;3.28;;;;;;;;;;5126169;27;20043;-61
2022/08/07 02:08:26;;;;;;;6.85;3.88;;;;;;;;;;5129555;27;20551;-61
2022/08/07 02:10:55;;;;;;;7.70;4.65;;;;;;;;;;5126745;27;20043;-61
2022/08/07 02:13:23;;;;;;;5.85;3.72;;;;;;;;;;5127366;27;20071;-61
2022/08/07 02:15:50;;;;;;;9.05;3.53;;;;;;;;;;5126081;27;20087;-61
2022/08/07 02:18:17;;;;;;;6.10;2.60;;;;;;;;;;5126890;27;20058;-61
2022/08/07 02:20:43;;;;;;;5.38;3.30;;;;;;;;;;5124688;27;20134;-61
2022/08/07 02:23:11;;;;;;;5.30;3.38;;;;;;;;;;5126171;27;20134;-61
2022/08/07 02:25:38;;;;;;;5.35;3.70;;;;;;;;;;5124124;27;20065;-61
2022/08/07 02:28:05;;;;;;;8.23;4.40;;;;;;;;;;5132141;27;20037;-61
2022/08/07 02:30:33;;;;;;;7.75;4.43;;;;;;;;;;5134720;27;20374;-61
2022/08/07 02:32:59;;;;;;;8.35;5.10;;;;;;;;;;5130989;27;20490;-61
2022/08/07 02:35:25;;;;;;;6.85;4.38;;;;;;;;;;5130487;27;20054;-61
2022/08/07 02:37:52;;;;;;;6.63;4.40;;;;;;;;;;5130611;27;20176;-61
2022/08/07 02:40:19;;;;;;;7.68;3.78;;;;;;;;;;5132911;27;20042;-61
2022/08/07 02:42:46;;;;;;;6.95;4.00;;;;;;;;;;5136807;27;20043;-61
2022/08/07 02:45:14;;;;;;;8.93;5.25;;;;;;;;;;5133396;27;20072;-61
2022/08/07 02:47:40;;;;;;;6.80;4.15;;;;;;;;;;5125047;27;20513;-61
2022/08/07 02:50:07;;;;;;;8.40;5.13;;;;;;;;;;5128895;27;20545;-61
2022/08/07 02:52:37;;;;;;;8.65;5.60;;;;;;;;;;5125860;27;20390;-61
2022/08/07 02:55:07;;;;;;;10.68;5.80;;;;;;;;;;5127991;27;20043;-61
2022/08/07 02:57:36;;;;;;;8.65;5.70;;;;;;;;;;5129275;27;20130;-61
2022/08/07 03:00:04;;;;;;;10.38;6.18;;;;;;;;;;5127136;27;20051;-61
2022/08/07 03:02:31;;;;;;;10.73;6.95;;;;;;;;;;5128750;27;20134;-61
2022/08/07 03:04:58;;;;;;;10.73;7.10;;;;;;;;;;5106205;27;20043;-61
2022/08/07 03:07:25;;;;;;;9.57;7.47;;;;;;;;;;5125349;27;20065;-61
2022/08/07 03:09:52;;;;;;;10.93;6.93;;;;;;;;;;5126575;27;20043;-61
2022/08/07 03:12:19;;;;;;;10.45;5.60;;;;;;;;;;5129834;27;20178;-61
2022/08/07 03:14:45;;;;;;;6.18;4.72;;;;;;;;;;5125057;27;20066;-61
2022/08/07 03:17:12;;;;;;;9.13;5.70;;;;;;;;;;5126887;27;20043;-61
2022/08/07 03:19:38;;;;;;;5.63;3.22;;;;;;;;;;5124230;27;20035;-61
2022/08/07 03:22:05;;;;;;;11.50;2.60;;;;;;;;;;5125615;27;20039;-61
2022/08/07 03:24:32;;;;;;;23.10;2.78;;;;;;;;;;5125297;27;20402;-61
2022/08/07 03:27:00;;;;;;;3.90;2.35;;;;;;;;;;5118991;27;20090;-61
2022/08/07 03:29:37;;;;;;;8.07;2.88;;;;;;;;;;5124732;27;20491;-61
2022/08/07 03:32:04;;;;;;;3.95;2.35;;;;;;;;;;5124551;27;20043;-61
2022/08/07 03:34:31;;;;;;;3.60;2.33;;;;;;;;;;5108012;27;20046;-61
2022/08/07 03:36:57;;;;;;;3.40;2.00;;;;;;;;;;5136610;27;20651;-62
2022/08/07 03:39:25;;;;;;;3.60;2.10;;;;;;;;;;5131204;27;20494;-61
2022/08/07 03:41:51;;;;;;;5.22;2.65;;;;;;;;;;5129533;27;20051;-61
2022/08/07 03:44:17;;;;;;;6.63;4.10;;;;;;;;;;5131043;27;20041;-61
2022/08/07 03:46:44;;;;;;;7.68;3.45;;;;;;;;;;5128631;27;20052;-61
2022/08/07 03:49:10;;;;;;;6.43;3.60;;;;;;;;;;5126892;27;20049;-61
2022/08/07 03:51:36;;;;;;;6.68;4.32;;;;;;;;;;5128019;27;20104;-61
2022/08/07 03:54:03;;;;;;;7.25;3.97;;;;;;;;;;5124956;27;20034;-61
2022/08/07 03:56:30;;;;;;;7.22;4.18;;;;;;;;;;5128001;27;20447;-61
2022/08/07 03:58:56;;;;;;;6.45;4.18;;;;;;;;;;5127277;27;20100;-61
2022/08/07 04:01:23;;;;;;;8.38;4.80;;;;;;;;;;5124618;27;20058;-61
2022/08/07 04:03:49;;;;;;;6.38;4.45;;;;;;;;;;5125026;27;20072;-61
2022/08/07 04:06:16;;;;;;;6.80;4.60;;;;;;;;;;5126066;27;20039;-61
2022/08/07 04:08:42;;;;;;;7.18;4.18;;;;;;;;;;5126599;27;20031;-61
2022/08/07 04:11:10;;;;;;;6.25;4.10;;;;;;;;;;5103363;27;20046;-61
2022/08/07 04:13:36;;;;;;;9.05;5.07;;;;;;;;;;5126174;27;20047;-61
2022/08/07 04:16:02;;;;;;;5.93;3.33;;;;;;;;;;5124451;27;20043;-61
2022/08/07 04:18:29;;;;;;;4.07;2.53;;;;;;;;;;5124495;27;20062;-61
2022/08/07 04:20:55;;;;;;;4.55;2.75;;;;;;;;;;5124576;27;20387;-61
2022/08/07 04:23:22;;;;;;;5.10;3.20;;;;;;;;;;5123816;27;20643;-61
2022/08/07 04:25:48;;;;;;;4.93;3.35;;;;;;;;;;5124009;27;20127;-61
2022/08/07 04:28:15;;;;;;;7.78;4.97;;;;;;;;;;5103442;27;20104;-61
2022/08/07 04:30:41;;;;;;;7.60;4.28;;;;;;;;;;5125357;27;20118;-61
2022/08/07 04:33:08;;;;;;;7.28;4.00;;;;;;;;;;5123217;27;20043;-61
2022/08/07 04:35:36;;;;;;;10.45;4.47;;;;;;;;;;5125416;27;20031;-61
2022/08/07 04:38:05;;;;;;;8.55;4.55;;;;;;;;;;5122460;27;20039;-61
2022/08/07 04:40:31;;;;;;;9.50;5.38;;;;;;;;;;5125038;27;20383;-61
2022/08/07 04:42:57;;;;;;;10.68;5.50;;;;;;;;;;5125061;27;20050;-61
2022/08/07 04:45:25;;;;;;;8.13;5.72;;;;;;;;;;5125330;27;20478;-61
2022/08/07 04:47:57;;;;;;;8.10;5.82;;;;;;;;;;5122790;27;20069;-61
2022/08/07 04:50:44;;;;;;;7.32;5.07;;;;;;;;;;5117611;27;20039;-61
2022/08/07 04:53:13;;;;;;;10.98;6.78;;;;;;;;;;5123375;27;20192;-61
2022/08/07 04:55:47;;;;;;;13.98;6.25;;;;;;;;;;5122481;27;20371;-61
2022/08/07 04:58:19;;;;;;;11.82;7.28;;;;;;;;;;5120242;27;20402;-61
2022/08/07 05:00:50;;;;;;;9.80;6.28;;;;;;;;;;5122573;27;20466;-61
2022/08/07 05:03:26;;;;;;;8.57;5.78;;;;;;;;;;5124697;27;20074;-61
2022/08/07 05:05:59;;;;;;;14.60;7.18;;;;;;;;;;5123503;27;20465;-61
2022/08/07 05:08:33;;;;;;;10.75;6.25;;;;;;;;;;5124196;27;20039;-61
2022/08/07 05:11:03;;;;;;;8.75;6.50;;;;;;;;;;5122638;27;20413;-61
2022/08/07 05:13:35;;;;;;;12.75;7.65;;;;;;;;;;5123986;27;20153;-61
2022/08/07 05:16:04;;;;;;;11.23;7.53;;;;;;;;;;5125686;27;20466;-61
2022/08/07 05:18:43;;;;;;;12.18;7.45;;;;;;;;;;5125260;27;20139;-61
2022/08/07 05:21:11;;;;;;;10.98;7.68;;;;;;;;;;5124091;27;20181;-61
2022/08/07 05:23:45;;;;;;;15.55;8.80;;;;;;;;;;5124383;27;20035;-60
2022/08/07 05:26:11;;;;;;;;;;;;;;;;;;5123110;27;20486;-66
2022/08/07 05:28:38;;;;;;;11.13;7.70;;;;;;;;;;5128019;27;19926;-60
2022/08/07 05:31:05;;;;;;;13.05;9.20;;;;;;;;;;5113989;27;20343;-60
2022/08/07 05:33:33;;;;;;;13.13;8.90;;;;;;;;;;5109326;27;20175;-60
2022/08/07 05:36:00;;;;;;;10.82;8.80;;;;;;;;;;5136958;27;20042;-60
2022/08/07 05:38:27;;;;;;;16.73;8.80;;;;;;;;;;5115066;27;20048;-60
2022/08/07 05:40:54;;;;;;;17.23;8.38;;;;;;;;;;5128463;27;20393;-60
2022/08/07 05:43:20;;;;;;;15.27;8.70;;;;;;;;;;5136502;27;20038;-60
2022/08/07 05:45:46;;;;;;;12.10;8.43;;;;;;;;;;5131101;27;20061;-60
2022/08/07 05:48:13;;;;;;;13.85;8.73;;;;;;;;;;5126837;27;20086;-60
2022/08/07 05:50:40;;;;;;;13.25;8.38;;;;;;;;;;5126839;27;20372;-60
2022/08/07 05:53:07;;;;;;;12.50;8.80;;;;;;;;;;5123620;27;20086;-60
2022/08/07 05:55:34;;;;;;;13.55;8.70;;;;;;;;;;5126648;27;20046;-60
2022/08/07 05:58:01;;;;;;;13.40;9.38;;;;;;;;;;5107839;28;20135;-60
2022/08/07 06:00:28;;;;;;;15.10;9.35;;;;;;;;;;5129370;27;20532;-60
2022/08/07 06:02:55;;;;;;;15.32;9.23;;;;;;;;;;5124957;27;20193;-59
2022/08/07 06:05:25;;;;;;;15.57;9.35;;;;;;;;;;5121183;27;20732;-60
2022/08/07 06:07:52;;;;;;;12.65;8.90;;;;;;;;;;5124279;27;20053;-60
2022/08/07 06:10:18;;;;;;;13.57;8.57;;;;;;;;;;5122631;27;20066;-59
2022/08/07 06:12:44;;;;;;;10.15;7.60;;;;;;;;;;5120507;27;20054;-60
2022/08/07 06:15:13;;;;;;;13.80;8.82;;;;;;;;;;5126166;27;20041;-60
2022/08/07 06:17:40;;;;;;;11.18;8.13;;;;;;;;;;5109476;27;20414;-60
2022/08/07 06:20:08;;;;;;;13.30;8.68;;;;;;;;;;5125500;27;20390;-60
2022/08/07 06:22:35;;;;;;;13.98;8.50;;;;;;;;;;5129842;27;20038;-60
2022/08/07 06:25:01;;;;;;;14.20;8.18;;;;;;;;;;5132525;27;20036;-60
2022/08/07 06:27:28;;;;;;;13.35;9.18;;;;;;;;;;5129414;27;20347;-60
2022/08/07 06:29:54;;;;;;;14.75;8.90;;;;;;;;;;5109370;27;20048;-60
2022/08/07 06:32:20;;;;;;;11.88;8.18;;;;;;;;;;5131782;27;20046;-60
2022/08/07 06:34:46;;;;;;;11.40;8.15;;;;;;;;;;5124168;27;20122;-60
2022/08/07 06:37:12;;;;;;;13.18;8.73;;;;;;;;;;5126730;27;20212;-60
2022/08/07 06:39:38;;;;;;;12.30;9.00;;;;;;;;;;5127885;27;20550;-60
2022/08/07 06:42:05;;;;;;;11.77;7.50;;;;;;;;;;5108996;27;20044;-60
2022/08/07 06:44:32;;;;;;;15.10;8.95;;;;;;;;;;5127870;27;20057;-60
2022/08/07 06:46:58;;;;;;;11.65;8.40;;;;;;;;;;5132098;27;20461;-60
2022/08/07 06:49:24;;;;;;;14.63;9.07;;;;;;;;;;5126419;27;20043;-60
2022/08/07 06:51:51;;;;;;;10.90;7.38;;;;;;;;;;5108567;27;20038;-60
2022/08/07 06:54:18;;;;;;;7.43;5.82;;;;;;;;;;5130886;27;20039;-60
2022/08/07 06:56:46;;;;;;;8.35;6.60;;;;;;;;;;5133894;27;20035;-60
2022/08/07 06:59:15;;;;;;;13.88;6.90;;;;;;;;;;5131034;27;20486;-60
2022/08/07 07:01:42;;;;;;;9.95;6.10;;;;;;;;;;5132675;27;20066;-60
2022/08/07 07:04:08;;;;;;;10.05;5.40;;;;;;;;;;5130220;27;20118;-60
2022/08/07 07:06:34;;;;;;;9.23;6.38;;;;;;;;;;5136297;27;20088;-60
2022/08/07 07:09:20;;;;;;;8.70;6.30;;;;;;;;;;5135552;27;20087;-60
2022/08/07 07:11:53;;;;;;;8.30;5.93;;;;;;;;;;5137961;27;20034;-60
2022/08/07 07:14:21;;;;;;;7.65;5.70;;;;;;;;;;5135668;27;20038;-60
2022/08/07 07:16:49;;;;;;;10.25;5.60;;;;;;;;;;5140894;27;20050;-60
2022/08/07 07:19:17;;;;;;;8.40;6.03;;;;;;;;;;5136586;27;20355;-60
2022/08/07 07:21:44;;;;;;;10.25;5.32;;;;;;;;;;5139347;27;20039;-60
2022/08/07 07:24:11;;;;;;;6.43;4.57;;;;;;;;;;5139684;27;20398;-60
2022/08/07 07:26:38;;;;;;;6.88;4.82;;;;;;;;;;5141832;27;20118;-60
2022/08/07 07:29:08;;;;;;;11.48;5.05;;;;;;;;;;5119144;27;20694;-60
2022/08/07 07:31:39;;;;;;;9.32;5.60;;;;;;;;;;5142682;27;20464;-60
2022/08/07 07:34:07;;;;;;;9.52;5.70;;;;;;;;;;5136014;27;20054;-60
2022/08/07 07:36:35;;;;;;;7.47;4.80;;;;;;;;;;5137437;27;20041;-60
2022/08/07 07:39:02;;;;;;;7.43;5.65;;;;;;;;;;5141413;27;20034;-60
2022/08/07 07:41:29;;;;;;;7.60;5.57;;;;;;;;;;5143746;27;20042;-60
2022/08/07 07:43:57;;;;;;;8.15;5.45;;;;;;;;;;5132326;27;20039;-60
2022/08/07 07:46:24;;;;;;;6.82;5.25;;;;;;;;;;5111611;27;20047;-60
2022/08/07 07:48:52;;;;;;;9.02;5.65;;;;;;;;;;5131964;27;20058;-61
2022/08/07 07:51:21;;;;;;;8.88;6.03;;;;;;;;;;5110730;27;20461;-60
2022/08/07 07:53:47;;;;;;;8.25;5.75;;;;;;;;;;5131373;27;20039;-60
2022/08/07 07:56:14;;;;;;;8.95;5.95;;;;;;;;;;5129344;27;20063;-60
2022/08/07 07:58:41;;;;;;;8.48;5.43;;;;;;;;;;5131560;27;20035;-60
2022/08/07 08:01:09;;;;;;;8.30;5.72;;;;;;;;;;5128407;27;20378;-60
2022/08/07 08:03:36;;;;;;;7.75;5.50;;;;;;;;;;5108871;27;20483;-60
2022/08/07 08:06:03;;;;;;;7.57;5.05;;;;;;;;;;5130499;27;20404;-60
2022/08/07 08:08:31;;;;;;;9.80;5.20;;;;;;;;;;5128082;27;20508;-61
2022/08/07 08:10:59;;;;;;;10.88;5.13;;;;;;;;;;5131359;27;20087;-60
2022/08/07 08:13:26;;;;;;;8.88;4.80;;;;;;;;;;5134124;27;20355;-60
2022/08/07 08:15:52;;;;;;;7.93;5.05;;;;;;;;;;5130201;27;20398;-60
2022/08/07 08:18:19;;;;;;;9.20;4.90;;;;;;;;;;5129620;27;20051;-60
2022/08/07 08:20:46;;;;;;;6.20;4.43;;;;;;;;;;5134163;27;20405;-60
2022/08/07 08:28:45;;;;;;;7.15;4.43;;;;;;;;;;5126004;27;20039;-60
2022/08/07 08:31:15;;;;;;;10.38;5.72;;;;;;;;;;5131393;27;20047;-60
2022/08/07 08:33:43;;;;;;;9.50;5.03;;;;;;;;;;5134122;27;20395;-60
2022/08/07 08:36:11;;;;;;;9.40;5.03;;;;;;;;;;5138003;27;20031;-59
2022/08/07 08:38:40;;;;;;;7.32;4.70;;;;;;;;;;5138139;27;20468;-60
2022/08/07 08:41:22;;;;;;;10.48;5.07;;;;;;;;;;5131385;27;20054;-60
2022/08/07 08:43:53;;;;;;;9.88;4.70;;;;;;;;;;5137615;27;20046;-59
2022/08/07 08:46:40;;;;;;;9.40;5.13;;;;;;;;;;5132951;27;20042;-60
2022/08/07 08:49:16;;;;;;;6.63;4.13;;;;;;;;;;5135807;27;20481;-60
2022/08/07 08:51:51;;;;;;;7.00;4.65;;;;;;;;;;5141702;27;20138;-60
2022/08/07 08:54:24;;;;;;;6.63;4.15;;;;;;;;;;5141387;27;20039;-60
2022/08/07 08:56:52;;;;;;;8.98;4.65;;;;;;;;;;5140769;27;20051;-60
2022/08/07 08:59:53;;;;;;;7.47;4.47;;;;;;;;;;5138523;27;20043;-60
2022/08/07 09:02:26;;;;;;;6.32;3.83;;;;;;;;;;5130504;27;20038;-60
2022/08/07 09:04:57;;;;;;;8.07;4.47;;;;;;;;;;5135478;27;20042;-60
2022/08/07 09:07:32;;;;;;;8.52;4.22;;;;;;;;;;5138074;27;20046;-60
2022/08/07 09:10:04;;;;;;;6.45;3.78;;;;;;;;;;5137238;27;20113;-60
2022/08/07 09:12:48;;;;;;;6.18;3.55;;;;;;;;;;5128325;27;20039;-60
2022/08/07 09:15:14;;;;;;;6.57;3.80;;;;;;;;;;5129976;27;20122;-60
2022/08/07 09:17:48;;;;;;;6.57;3.33;;;;;;;;;;5127733;27;20039;-60
2022/08/07 09:20:14;;;;;;;4.82;3.00;;;;;;;;;;5124968;27;20529;-60
2022/08/07 09:22:40;;;;;;;9.40;3.97;;;;;;;;;;5129898;27;20081;-60
2022/08/07 09:25:12;;;;;;;5.22;3.30;;;;;;;;;;5120689;27;20385;-60
2022/08/07 09:27:50;;;;;;;5.53;2.90;;;;;;;;;;5130318;27;20608;-59
2022/08/07 09:30:17;;;;;;;12.13;4.63;;;;;;;;;;5140657;27;20046;-60
2022/08/07 09:32:56;;;;;;;9.77;3.78;;;;;;;;;;5133137;27;20466;-60
2022/08/07 09:35:41;;;;;;;11.60;3.58;;;;;;;;;;5135399;27;20288;-60
2022/08/07 09:38:12;;;;;;;4.88;3.10;;;;;;;;;;5121925;27;20119;-59
2022/08/07 09:40:49;;;;;;;5.82;3.33;;;;;;;;;;5124418;27;20058;-60
2022/08/07 09:43:28;;;;;;;5.38;2.90;;;;;;;;;;5124709;27;20125;-60
2022/08/07 09:46:02;;;;;;;6.70;3.00;;;;;;;;;;5130197;27;20058;-60
2022/08/07 09:48:42;;;;;;;6.47;3.70;;;;;;;;;;5132968;27;20054;-60
2022/08/07 09:51:28;;;;;;;7.03;3.47;;;;;;;;;;5135379;27;20038;-60
2022/08/07 09:53:57;;;;;;;9.45;3.55;;;;;;;;;;5130522;27;20042;-60
2022/08/07 09:56:36;;;;;;;5.60;3.00;;;;;;;;;;5128600;27;20064;-60
2022/08/07 09:59:18;;;;;;;6.55;3.38;;;;;;;;;;5133650;27;20054;-60
2022/08/07 10:01:52;;;;;;;10.75;3.58;;;;;;;;;;5114019;27;20101;-60
2022/08/07 10:04:30;;;;;;;12.63;3.47;;;;;;;;;;5125688;27;20041;-60
2022/08/07 10:07:12;;;;;;;5.20;3.05;;;;;;;;;;5127870;27;20046;-60
2022/08/07 10:09:44;;;;;;;6.80;2.95;;;;;;;;;;5125759;27;20505;-60
2022/08/07 10:12:38;;;;;;;5.47;2.85;;;;;;;;;;5126779;27;21078;-68
2022/08/07 10:15:16;;;;;;;4.78;2.80;;;;;;;;;;5125718;27;20078;-61
2022/08/07 10:17:52;;;;;;;8.43;3.25;;;;;;;;;;5126424;27;20039;-60
2022/08/07 10:20:27;;;;;;;7.50;3.15;;;;;;;;;;5138507;27;20103;-60
2022/08/07 10:22:53;;;;;;;6.03;2.53;;;;;;;;;;5106677;28;20494;-60
2022/08/07 10:25:25;;;;;;;6.05;2.67;;;;;;;;;;5127152;27;20047;-60
2022/08/07 10:27:56;;;;;;;6.10;2.53;;;;;;;;;;5128843;27;20043;-60
2022/08/07 10:30:30;;;;;;;4.43;2.35;;;;;;;;;;5142257;27;20041;-60
2022/08/07 10:33:12;;;;;;;4.85;2.50;;;;;;;;;;5136081;27;20490;-63
2022/08/07 10:35:50;;;;;;;8.38;3.28;;;;;;;;;;5143826;27;20039;-63
2022/08/07 10:38:24;;;;;;;6.68;2.63;;;;;;;;;;5137257;27;20038;-60
2022/08/07 10:41:05;;;;;;;9.20;2.80;;;;;;;;;;5138844;27;20183;-60
2022/08/07 10:43:34;;;;;;;4.85;2.60;;;;;;;;;;5144759;27;20035;-60
2022/08/07 10:46:02;;;;;;;5.72;2.80;;;;;;;;;;5140335;27;20251;-60
2022/08/07 10:48:31;;;;;;;10.13;2.95;;;;;;;;;;5139845;27;20035;-60
2022/08/07 10:51:00;;;;;;;5.45;2.95;;;;;;;;;;5144712;27;20117;-60
2022/08/07 10:53:33;;;;;;;9.73;3.33;;;;;;;;;;5140047;27;20117;-60
2022/08/07 10:55:59;;;;;;;;;;;;;;;;;;5134255;27;20031;-62
2022/08/07 10:58:34;;;;;;;4.78;2.80;;;;;;;;;;5130259;27;20085;-60
2022/08/07 11:01:15;;;;;;;7.05;2.80;;;;;;;;;;5130544;27;20051;-60
2022/08/07 11:03:44;;;;;;;4.90;2.70;;;;;;;;;;5134793;27;20051;-60
2022/08/07 11:06:16;;;;;;;5.60;2.17;;;;;;;;;;5111949;27;20435;-61
2022/08/07 11:08:48;;;;;;;3.50;1.77;;;;;;;;;;5124444;27;20039;-60
2022/08/07 11:11:20;;;;;;;8.13;2.00;;;;;;;;;;5127741;27;20636;-60
2022/08/07 11:13:52;;;;;;;4.55;1.88;;;;;;;;;;5126820;27;20494;-60
2022/08/07 11:16:24;;;;;;;4.75;2.00;;;;;;;;;;5125237;27;20360;-60
2022/08/07 11:18:55;;;;;;;4.55;1.70;;;;;;;;;;5126139;27;20062;-60
2022/08/07 11:21:22;;;;;;;7.93;2.60;;;;;;;;;;5130936;27;20063;-60
2022/08/07 11:23:48;;;;;;;5.05;2.20;;;;;;;;;;5132583;27;20114;-60
2022/08/07 11:26:24;;;;;;;6.93;2.30;;;;;;;;;;5110630;27;20947;-60
2022/08/07 11:28:58;;;;;;;4.93;1.80;;;;;;;;;;5131182;27;20367;-60
2022/08/07 11:31:29;;;;;;;3.83;2.10;;;;;;;;;;5126796;27;20403;-60
2022/08/07 11:34:16;;;;;;;3.47;1.67;;;;;;;;;;5128569;27;20089;-60
2022/08/07 11:36:56;;;;;;;4.50;1.60;;;;;;;;;;5127399;27;20103;-60
2022/08/07 11:39:29;;;;;;;7.43;1.98;;;;;;;;;;5130483;27;20035;-60
2022/08/07 11:42:00;;;;;;;2.80;1.42;;;;;;;;;;5111348;27;20550;-60
2022/08/07 11:44:36;;;;;;;5.15;1.70;;;;;;;;;;5129297;27;20039;-60
2022/08/07 11:47:12;;;;;;;4.43;1.50;;;;;;;;;;5128725;27;20070;-61
2022/08/07 11:50:07;;;;;;;5.35;1.40;;;;;;;;;;5127522;27;20087;-60
2022/08/07 11:52:49;;;;;;;3.40;1.05;;;;;;;;;;5130960;27;20482;-60
2022/08/07 11:55:29;;;;;;;3.47;1.10;;;;;;;;;;5126647;27;21917;-60
2022/08/07 11:58:02;;;;;;;2.95;1.10;;;;;;;;;;5132826;27;20075;-61
2022/08/07 12:00:32;;;;;;;3.15;1.10;;;;;;;;;;5131795;27;20053;-60
2022/08/07 12:02:58;;;;;;;3.60;0.95;;;;;;;;;;5136788;27;20043;-61
2022/08/07 12:05:28;;;;;;;2.05;1.00;;;;;;;;;;5144107;27;20748;-61
2022/08/07 12:08:21;;;;;;;3.20;1.20;;;;;;;;;;5138341;27;20053;-61
2022/08/07 12:10:52;;;;;;;4.18;1.13;;;;;;;;;;5141681;27;20121;-60
2022/08/07 12:13:28;;;;;;;3.53;1.00;;;;;;;;;;5133691;27;20060;-61
2022/08/07 12:15:58;;;;;;;4.18;1.02;;;;;;;;;;5133798;27;20473;-61
2022/08/07 12:18:29;;;;;;;4.30;1.00;;;;;;;;;;5139177;27;20411;-61
2022/08/07 12:21:05;;;;;;;3.08;1.00;;;;;;;;;;5126303;27;20553;-61
2022/08/07 12:23:38;;;;;;;3.25;0.90;;;;;;;;;;5131560;27;20494;-61
2022/08/07 12:26:10;;;;;;;3.13;1.17;;;;;;;;;;5129134;27;20167;-61
2022/08/07 12:28:43;;;;;;;3.60;1.17;;;;;;;;;;5126699;27;20130;-61
2022/08/07 12:31:12;;;;;;;5.53;1.33;;;;;;;;;;5113011;27;20047;-61
2022/08/07 12:33:40;;;;;;;3.28;1.17;;;;;;;;;;5125956;27;20059;-61
2022/08/07 12:36:07;;;;;;;3.47;1.10;;;;;;;;;;5133068;27;20466;-61
2022/08/07 12:38:33;;;;;;;6.25;1.88;;;;;;;;;;5135266;27;20076;-61
2022/08/07 12:41:00;;;;;;;3.08;0.90;;;;;;;;;;5111135;27;20118;-61
2022/08/07 12:43:29;;;;;;;3.55;1.00;;;;;;;;;;5128685;27;20030;-61
2022/08/07 12:46:05;;;;;;;3.92;1.42;;;;;;;;;;5131145;27;20087;-60
2022/08/07 12:48:39;;;;;;;3.45;1.05;;;;;;;;;;5132044;27;20134;-61
2022/08/07 12:51:14;;;;;;;3.75;1.10;;;;;;;;;;5136096;27;20084;-61
2022/08/07 12:54:02;;;;;;;2.60;1.08;;;;;;;;;;5137001;27;20081;-61
2022/08/07 12:56:34;;;;;;;3.00;1.20;;;;;;;;;;5131411;27;20031;-61
2022/08/07 12:59:02;;;;;;;4.57;1.33;;;;;;;;;;5137113;27;20064;-61
2022/08/07 13:01:35;;;;;;;5.38;1.40;;;;;;;;;;5131840;27;20058;-60
2022/08/07 13:04:11;;;;;;;3.35;1.40;;;;;;;;;;5130530;27;20049;-60
2022/08/07 13:06:41;;;;;;;3.33;1.30;;;;;;;;;;5128577;27;20130;-60
2022/08/07 13:09:17;;;;;;;2.78;1.60;;;;;;;;;;5116793;27;20047;-60
2022/08/07 13:11:43;;;;;;;4.82;1.60;;;;;;;;;;5115372;27;20391;-60
2022/08/07 13:14:21;;;;;;;4.30;1.92;;;;;;;;;;5140205;27;20039;-60
2022/08/07 13:16:55;;;;;;;5.88;2.35;;;;;;;;;;5136989;27;20039;-60
2022/08/07 13:19:21;;;;;;;7.75;2.47;;;;;;;;;;5124931;27;20074;-60
2022/08/07 13:21:59;;;;;;;6.07;1.98;;;;;;;;;;5129980;27;20043;-60
2022/08/07 13:24:27;;;;;;;7.82;2.33;;;;;;;;;;5127602;27;20039;-60
2022/08/07 13:27:16;;;;;;;6.60;2.10;;;;;;;;;;5127047;27;20067;-60
2022/08/07 13:29:48;;;;;;;3.80;1.88;;;;;;;;;;5130123;27;20039;-60
2022/08/07 13:32:16;;;;;;;9.55;2.55;;;;;;;;;;5125262;27;20453;-60
2022/08/07 13:34:45;;;;;;;6.90;2.20;;;;;;;;;;5125887;27;20479;-60
2022/08/07 13:37:27;;;;;;;6.40;2.10;;;;;;;;;;5123409;27;20035;-60
2022/08/07 13:40:10;;;;;;;5.80;2.13;;;;;;;;;;5127482;27;20407;-60
2022/08/07 13:42:37;;;;;;;4.40;2.08;;;;;;;;;;5128390;27;20401;-61
2022/08/07 13:45:07;;;;;;;5.50;2.35;;;;;;;;;;5129249;27;20382;-61
2022/08/07 13:47:35;;;;;;;4.65;1.90;;;;;;;;;;5125326;27;20066;-61
2022/08/07 13:50:02;;;;;;;3.80;1.95;;;;;;;;;;5122576;27;20048;-61
2022/08/07 13:52:30;;;;;;;6.07;2.03;;;;;;;;;;5125610;27;20082;-60
2022/08/07 13:54:57;;;;;;;3.90;1.80;;;;;;;;;;5122644;27;20046;-61
2022/08/07 13:57:25;;;;;;;4.75;2.00;;;;;;;;;;5130270;27;20035;-61
2022/08/07 13:59:55;;;;;;;4.90;1.73;;;;;;;;;;5122708;27;20667;-61
2022/08/07 14:02:26;;;;;;;4.28;1.80;;;;;;;;;;5129288;27;20039;-61
2022/08/07 14:04:55;;;;;;;3.50;1.90;;;;;;;;;;5132229;27;20087;-61
2022/08/07 14:07:24;;;;;;;4.82;1.88;;;;;;;;;;5127019;27;20070;-61
2022/08/07 14:09:54;;;;;;;4.82;2.05;;;;;;;;;;5127624;27;20112;-61
2022/08/07 14:12:26;;;;;;;3.60;1.77;;;;;;;;;;5131651;27;20071;-62
2022/08/07 14:14:54;;;;;;;5.78;1.95;;;;;;;;;;5129094;27;20529;-61
2022/08/07 14:17:23;;;;;;;5.65;1.90;;;;;;;;;;5087897;27;1149905;-61
2022/08/07 14:19:51;;;;;;;6.40;2.25;;;;;;;;;;5134439;27;20072;-61
2022/08/07 14:22:24;;;;;;;8.30;2.22;;;;;;;;;;5105617;27;20066;-61
2022/08/07 14:24:53;;;;;;;13.80;2.28;;;;;;;;;;5125528;27;20850;-61
2022/08/07 14:27:26;;;;;;;7.35;2.10;;;;;;;;;;5130013;27;20039;-61
2022/08/07 14:29:54;;;;;;;9.68;2.08;;;;;;;;;;5126898;27;20035;-61
2022/08/07 14:32:21;;;;;;;6.43;1.92;;;;;;;;;;5123984;27;20567;-61
2022/08/07 14:34:48;;;;;;;5.85;1.88;;;;;;;;;;5111887;27;20086;-61
2022/08/07 14:37:16;;;;;;;6.80;2.42;;;;;;;;;;5127631;27;20040;-61
2022/08/07 14:39:43;;;;;;;14.43;3.13;;;;;;;;;;5127070;27;20486;-61
2022/08/07 14:42:11;;;;;;;223.77;25.10;;;;;;;;;;5132674;27;20555;-61
2022/08/07 14:44:43;;;;;;;4.85;2.22;;;;;;;;;;5129169;27;20035;-61
2022/08/07 14:47:12;;;;;;;11.65;2.55;;;;;;;;;;5130323;27;20053;-61
2022/08/07 14:49:38;;;;;;;10.63;2.92;;;;;;;;;;5130770;27;20496;-61
2022/08/07 14:52:05;;;;;;;5.18;2.35;;;;;;;;;;5129691;27;20067;-60
2022/08/07 14:54:33;;;;;;;7.75;2.90;;;;;;;;;;5130104;27;20043;-60
2022/08/07 14:57:00;;;;;;;8.15;2.33;;;;;;;;;;5129865;27;20497;-60
2022/08/07 14:59:27;;;;;;;5.65;2.25;;;;;;;;;;5126645;27;20134;-61
2022/08/07 15:01:57;;;;;;;12.65;2.92;;;;;;;;;;5126691;27;20047;-60